Time;durP1;ratioP1;P1;durP2;ratioP2;P2;SDS_P1;SDS_P2;PMS_P1;PMS_P2;Temp;Humidity;BMP_temperature;BMP_pressure;BME280_temperature;BME280_humidity;BME280_pressure;Samples;Min_cycle;Max_cycle;Signal;HPM_P1;HPM_P2
2023/02/19 00:02:15;;;;;;;2.90;2.60;;;;;;;;;;5100226;28;20205;-82
2023/02/19 00:04:42;;;;;;;4.20;2.67;;;;;;;;;;5099984;28;20207;-83
2023/02/19 00:07:09;;;;;;;2.50;2.00;;;;;;;;;;5081359;28;20277;-82
2023/02/19 00:09:36;;;;;;;3.87;2.43;;;;;;;;;;5093299;28;20615;-82
2023/02/19 00:12:03;;;;;;;3.37;2.17;;;;;;;;;;5107964;28;20195;-83
2023/02/19 00:14:30;;;;;;;3.03;1.97;;;;;;;;;;5078852;28;20659;-81
2023/02/19 00:16:58;;;;;;;2.27;2.07;;;;;;;;;;5094179;28;20200;-83
2023/02/19 00:19:26;;;;;;;2.60;2.40;;;;;;;;;;5101383;28;20276;-83
2023/02/19 00:21:53;;;;;;;4.20;2.73;;;;;;;;;;5111667;28;20203;-83
2023/02/19 00:24:21;;;;;;;3.27;2.80;;;;;;;;;;5093220;28;20204;-83
2023/02/19 00:26:48;;;;;;;2.80;2.10;;;;;;;;;;5076523;28;20640;-83
2023/02/19 00:29:17;;;;;;;2.30;2.10;;;;;;;;;;5113380;28;20196;-83
2023/02/19 00:31:44;;;;;;;3.53;2.33;;;;;;;;;;5110945;28;20707;-82
2023/02/19 00:34:11;;;;;;;4.27;2.80;;;;;;;;;;5102113;28;20192;-83
2023/02/19 00:36:41;;;;;;;4.27;2.70;;;;;;;;;;5108990;28;20200;-83
2023/02/19 00:39:08;;;;;;;3.33;2.40;;;;;;;;;;5092768;28;20266;-83
2023/02/19 00:41:35;;;;;;;5.47;2.63;;;;;;;;;;5105599;28;20200;-83
2023/02/19 00:44:04;;;;;;;5.90;2.53;;;;;;;;;;5103479;28;20210;-83
2023/02/19 00:46:33;;;;;;;4.60;2.30;;;;;;;;;;5076791;28;20231;-83
2023/02/19 00:49:00;;;;;;;2.93;2.53;;;;;;;;;;5104278;28;20200;-83
2023/02/19 00:51:28;;;;;;;2.67;2.30;;;;;;;;;;5106777;28;20275;-83
2023/02/19 00:53:57;;;;;;;2.80;2.60;;;;;;;;;;5105452;28;20203;-83
2023/02/19 00:56:24;;;;;;;3.90;3.30;;;;;;;;;;5112063;28;20739;-84
2023/02/19 00:58:51;;;;;;;3.23;2.93;;;;;;;;;;5094041;28;20207;-83
2023/02/19 01:01:19;;;;;;;3.40;2.50;;;;;;;;;;5092906;28;20634;-83
2023/02/19 01:03:46;;;;;;;4.27;2.97;;;;;;;;;;5092587;28;20208;-83
2023/02/19 01:06:14;;;;;;;5.03;3.37;;;;;;;;;;5091311;28;20254;-83
2023/02/19 01:08:41;;;;;;;6.03;4.30;;;;;;;;;;5092279;28;20200;-83
2023/02/19 01:11:11;;;;;;;8.63;5.60;;;;;;;;;;5099169;28;20272;-83
2023/02/19 01:13:38;;;;;;;5.37;4.37;;;;;;;;;;5112486;28;20196;-83
2023/02/19 01:16:06;;;;;;;5.40;3.70;;;;;;;;;;5111869;28;20219;-83
2023/02/19 01:18:33;;;;;;;4.27;2.80;;;;;;;;;;5097142;28;20216;-82
2023/02/19 01:21:00;;;;;;;5.20;3.20;;;;;;;;;;5099624;28;20690;-83
2023/02/19 01:23:27;;;;;;;3.40;2.93;;;;;;;;;;5097429;28;20591;-83
2023/02/19 01:25:53;;;;;;;4.57;3.00;;;;;;;;;;5091659;28;20204;-83
2023/02/19 01:28:22;;;;;;;9.17;7.97;;;;;;;;;;5092229;28;20201;-83
2023/02/19 01:30:49;;;;;;;6.87;5.53;;;;;;;;;;5100551;28;20689;-83
2023/02/19 01:33:15;;;;;;;5.03;4.60;;;;;;;;;;5096380;28;20223;-83
2023/02/19 01:35:42;;;;;;;7.10;4.33;;;;;;;;;;5091331;28;20220;-83
2023/02/19 01:38:09;;;;;;;6.83;4.90;;;;;;;;;;5091847;28;20211;-83
2023/02/19 01:40:35;;;;;;;5.53;4.30;;;;;;;;;;5101472;28;20323;-83
2023/02/19 01:43:03;;;;;;;5.77;4.00;;;;;;;;;;5094990;28;20675;-83
2023/02/19 01:45:32;;;;;;;4.67;3.93;;;;;;;;;;5101515;28;20203;-83
2023/02/19 01:48:06;;;;;;;5.07;3.30;;;;;;;;;;5097992;28;20738;-83
2023/02/19 01:50:38;;;;;;;3.67;2.63;;;;;;;;;;5111593;28;20632;-83
2023/02/19 01:53:07;;;;;;;6.43;3.07;;;;;;;;;;5092146;28;20192;-83
2023/02/19 01:55:35;;;;;;;3.33;2.73;;;;;;;;;;5104453;28;20227;-83
2023/02/19 01:58:03;;;;;;;4.07;2.93;;;;;;;;;;5111237;28;20252;-83
2023/02/19 02:00:32;;;;;;;2.87;2.60;;;;;;;;;;5097854;28;20204;-83
2023/02/19 02:02:59;;;;;;;3.63;2.87;;;;;;;;;;5111619;28;20385;-83
2023/02/19 02:05:38;;;;;;;3.07;2.70;;;;;;;;;;5097017;28;20212;-83
2023/02/19 02:10:50;;;;;;;4.00;2.30;;;;;;;;;;5092610;28;20210;-83
2023/02/19 02:13:17;;;;;;;4.10;2.60;;;;;;;;;;5103072;28;20207;-83
2023/02/19 02:15:52;;;;;;;2.27;2.03;;;;;;;;;;5105651;28;20220;-83
2023/02/19 02:18:29;;;;;;;4.23;2.70;;;;;;;;;;5091131;28;20257;-83
2023/02/19 02:21:05;;;;;;;4.30;2.80;;;;;;;;;;5091542;28;20207;-83
2023/02/19 02:23:41;;;;;;;3.70;2.60;;;;;;;;;;5090852;28;20200;-84
2023/02/19 02:26:31;;;;;;;3.77;2.80;;;;;;;;;;5090741;28;20755;-83
2023/02/19 02:29:14;;;;;;;3.50;2.70;;;;;;;;;;5090873;28;20706;-83
2023/02/19 02:31:44;;;;;;;4.07;2.73;;;;;;;;;;5093486;28;20268;-83
2023/02/19 02:34:15;;;;;;;4.33;2.50;;;;;;;;;;5110650;28;20204;-83
2023/02/19 02:36:44;;;;;;;4.00;2.37;;;;;;;;;;5093401;28;20232;-83
2023/02/19 02:39:22;;;;;;;3.90;2.77;;;;;;;;;;5102532;28;20593;-83
2023/02/19 02:42:25;;;;;;;2.80;2.27;;;;;;;;;;5091519;28;20203;-83
2023/02/19 02:45:33;;;;;;;2.33;2.13;;;;;;;;;;5090134;28;20287;-83
2023/02/19 02:47:43;;;;;;;3.10;2.33;;;;;;;;;;5104152;28;20258;-84
2023/02/19 02:50:12;;;;;;;3.23;2.57;;;;;;;;;;5103076;28;20277;-83
2023/02/19 02:55:26;;;;;;;5.77;2.33;;;;;;;;;;5110828;28;20655;-83
2023/02/19 02:57:54;;;;;;;6.10;2.50;;;;;;;;;;5092464;28;20238;-83
2023/02/19 03:00:21;;;;;;;3.10;2.17;;;;;;;;;;5082652;28;20204;-83
2023/02/19 03:02:48;;;;;;;3.00;2.70;;;;;;;;;;5094272;28;20637;-83
2023/02/19 03:08:06;;;;;;;3.93;2.40;;;;;;;;;;5094554;28;20309;-83
2023/02/19 03:10:36;;;;;;;3.87;2.23;;;;;;;;;;5093858;28;20197;-83
2023/02/19 03:21:28;;;;;;;3.40;2.30;;;;;;;;;;5102303;28;20693;-83
2023/02/19 03:26:42;;;;;;;2.70;2.40;;;;;;;;;;5114320;28;20236;-83
2023/02/19 03:29:25;;;;;;;2.37;1.90;;;;;;;;;;5114766;28;20207;-83
2023/02/19 03:31:54;;;;;;;2.50;2.30;;;;;;;;;;5100340;28;20200;-83
2023/02/19 03:34:25;;;;;;;3.83;2.53;;;;;;;;;;5103347;28;20200;-83
2023/02/19 03:36:57;;;;;;;2.10;1.90;;;;;;;;;;5107343;28;20227;-82
2023/02/19 03:39:25;;;;;;;5.07;2.20;;;;;;;;;;5107118;28;20196;-83
2023/02/19 03:41:58;;;;;;;2.67;2.40;;;;;;;;;;5095198;28;20207;-83
2023/02/19 03:44:28;;;;;;;2.87;2.40;;;;;;;;;;5100347;28;20261;-84
2023/02/19 03:47:02;;;;;;;2.33;2.13;;;;;;;;;;5094000;28;20232;-83
2023/02/19 03:49:36;;;;;;;2.57;2.10;;;;;;;;;;5107101;28;20294;-83
2023/02/19 03:52:10;;;;;;;3.30;2.10;;;;;;;;;;5093766;28;20211;-83
2023/02/19 03:54:40;;;;;;;2.80;2.13;;;;;;;;;;5107691;28;20208;-84
2023/02/19 03:57:13;;;;;;;2.40;2.17;;;;;;;;;;5105090;28;20231;-83
2023/02/19 03:59:43;;;;;;;3.37;2.10;;;;;;;;;;5108263;28;20204;-83
2023/02/19 04:02:13;;;;;;;2.63;2.43;;;;;;;;;;5106668;28;20279;-83
2023/02/19 04:04:43;;;;;;;7.80;4.87;;;;;;;;;;5075739;28;20675;-83
2023/02/19 04:07:11;;;;;;;21.53;10.80;;;;;;;;;;5094426;28;20204;-83
2023/02/19 04:09:41;;;;;;;11.13;6.73;;;;;;;;;;5113393;28;20195;-84
2023/02/19 04:12:08;;;;;;;6.77;4.47;;;;;;;;;;5110195;28;20670;-83
2023/02/19 04:14:38;;;;;;;2.87;2.27;;;;;;;;;;5093577;28;20332;-84
2023/02/19 04:17:11;;;;;;;3.17;2.43;;;;;;;;;;5093140;28;20228;-83
2023/02/19 04:19:40;;;;;;;2.37;2.13;;;;;;;;;;5093547;28;20208;-84
2023/02/19 04:22:08;;;;;;;4.80;3.87;;;;;;;;;;5096753;28;20553;-83
2023/02/19 04:24:38;;;;;;;3.87;3.47;;;;;;;;;;5113741;28;20282;-84
2023/02/19 04:27:05;;;;;;;5.00;2.57;;;;;;;;;;5060050;28;20633;-83
2023/02/19 04:29:32;;;;;;;2.87;2.53;;;;;;;;;;5092939;28;20249;-84
2023/02/19 04:31:59;;;;;;;2.93;2.00;;;;;;;;;;5092801;28;20205;-83
2023/02/19 04:34:27;;;;;;;2.90;1.80;;;;;;;;;;5093014;28;20262;-83
2023/02/19 04:36:56;;;;;;;2.77;2.10;;;;;;;;;;5105932;28;20224;-83
2023/02/19 04:39:23;;;;;;;2.90;2.60;;;;;;;;;;5092754;28;20257;-84
2023/02/19 04:41:50;;;;;;;2.53;2.17;;;;;;;;;;5081126;28;20682;-84
2023/02/19 04:44:17;;;;;;;3.00;2.33;;;;;;;;;;5094813;28;20253;-83
2023/02/19 04:46:44;;;;;;;2.53;2.33;;;;;;;;;;5098994;28;20709;-83
2023/02/19 04:49:11;;;;;;;2.93;2.47;;;;;;;;;;5095007;28;20617;-83
2023/02/19 04:51:38;;;;;;;3.27;2.47;;;;;;;;;;5074906;28;20659;-84
2023/02/19 04:54:07;;;;;;;2.50;2.17;;;;;;;;;;5087850;28;20199;-84
2023/02/19 04:56:34;;;;;;;2.40;2.20;;;;;;;;;;5081593;28;20266;-84
2023/02/19 04:59:01;;;;;;;2.10;2.00;;;;;;;;;;5111555;28;20207;-84
2023/02/19 05:01:27;;;;;;;2.37;2.17;;;;;;;;;;5103007;28;20590;-84
2023/02/19 05:03:54;;;;;;;2.17;1.97;;;;;;;;;;5105937;28;20570;-84
2023/02/19 05:06:21;;;;;;;2.77;2.50;;;;;;;;;;5092128;28;20205;-84
2023/02/19 05:08:48;;;;;;;3.83;2.17;;;;;;;;;;5094863;28;20199;-84
2023/02/19 05:11:16;;;;;;;2.43;2.00;;;;;;;;;;5110559;28;20210;-84
2023/02/19 05:13:43;;;;;;;2.37;2.17;;;;;;;;;;5098942;28;20674;-84
2023/02/19 05:16:12;;;;;;;2.60;2.33;;;;;;;;;;5112148;28;20230;-84
2023/02/19 05:18:40;;;;;;;3.23;2.50;;;;;;;;;;5112556;28;20199;-84
2023/02/19 05:21:07;;;;;;;2.67;2.47;;;;;;;;;;5103089;28;20200;-84
2023/02/19 05:23:34;;;;;;;3.90;3.43;;;;;;;;;;5087110;28;20203;-84
2023/02/19 05:26:05;;;;;;;4.97;4.47;;;;;;;;;;5094843;28;20208;-84
2023/02/19 05:28:33;;;;;;;4.63;4.20;;;;;;;;;;5090992;28;20716;-83
2023/02/19 05:31:05;;;;;;;7.20;3.93;;;;;;;;;;5112474;28;20240;-83
2023/02/19 05:33:31;;;;;;;6.93;5.23;;;;;;;;;;5092764;28;20204;-83
2023/02/19 05:35:58;;;;;;;3.70;3.10;;;;;;;;;;5098569;28;20272;-83
2023/02/19 05:38:25;;;;;;;3.23;2.37;;;;;;;;;;5098618;28;20204;-83
2023/02/19 05:40:52;;;;;;;3.90;2.40;;;;;;;;;;5098490;28;20236;-83
2023/02/19 05:43:19;;;;;;;3.57;2.70;;;;;;;;;;5112836;28;20203;-85
2023/02/19 05:45:47;;;;;;;3.67;2.30;;;;;;;;;;5091883;28;20262;-84
2023/02/19 05:48:14;;;;;;;3.23;2.30;;;;;;;;;;5091878;28;20200;-85
2023/02/19 05:50:41;;;;;;;2.33;2.13;;;;;;;;;;5080475;28;20596;-85
2023/02/19 05:53:08;;;;;;;2.47;2.17;;;;;;;;;;5077256;28;20208;-85
2023/02/19 05:55:36;;;;;;;2.33;2.03;;;;;;;;;;5093578;28;20203;-84
2023/02/19 05:58:04;;;;;;;2.13;1.73;;;;;;;;;;5076948;28;20233;-83
2023/02/19 06:00:32;;;;;;;1.90;1.80;;;;;;;;;;5094115;28;20203;-84
2023/02/19 06:03:00;;;;;;;2.70;2.20;;;;;;;;;;5097113;28;20609;-83
2023/02/19 06:05:27;;;;;;;3.97;3.10;;;;;;;;;;5103163;28;20655;-82
2023/02/19 06:07:54;;;;;;;3.20;2.47;;;;;;;;;;5093883;28;20215;-82
2023/02/19 06:10:21;;;;;;;2.93;2.20;;;;;;;;;;5102752;28;20594;-84
2023/02/19 06:12:51;;;;;;;2.93;2.73;;;;;;;;;;5111679;28;20215;-84
2023/02/19 06:15:19;;;;;;;3.63;2.33;;;;;;;;;;5094393;28;20622;-87
2023/02/19 06:17:48;;;;;;;4.30;3.87;;;;;;;;;;5110848;28;20280;-88
2023/02/19 06:20:17;;;;;;;5.27;4.00;;;;;;;;;;5078423;28;20222;-88
2023/02/19 06:22:45;;;;;;;6.97;6.27;;;;;;;;;;5082470;28;20639;-88
2023/02/19 06:25:14;;;;;;;12.23;8.80;;;;;;;;;;5095554;28;20208;-88
2023/02/19 06:27:43;;;;;;;13.53;8.00;;;;;;;;;;5101132;28;20215;-87
2023/02/19 06:30:12;;;;;;;9.53;6.27;;;;;;;;;;5098073;28;20242;-88
2023/02/19 06:32:38;;;;;;;9.47;5.27;;;;;;;;;;5106149;28;20207;-88
2023/02/19 06:35:06;;;;;;;5.43;3.67;;;;;;;;;;5091991;28;20227;-87
2023/02/19 06:37:35;;;;;;;6.40;4.00;;;;;;;;;;5106581;28;20617;-87
2023/02/19 06:40:03;;;;;;;5.87;4.07;;;;;;;;;;5114980;28;20219;-87
2023/02/19 06:42:32;;;;;;;12.60;7.87;;;;;;;;;;5104539;28;20269;-87
2023/02/19 06:45:00;;;;;;;13.77;6.90;;;;;;;;;;5079359;28;20212;-87
2023/02/19 06:47:27;;;;;;;7.27;5.17;;;;;;;;;;5107459;28;20718;-87
2023/02/19 06:49:54;;;;;;;103.83;44.90;;;;;;;;;;5077804;28;20204;-87
2023/02/19 06:52:22;;;;;;;57.33;28.20;;;;;;;;;;5095005;28;20686;-88
2023/02/19 06:54:50;;;;;;;17.37;9.83;;;;;;;;;;5095480;28;20689;-82
2023/02/19 06:57:17;;;;;;;11.53;7.50;;;;;;;;;;5096554;28;20767;-86
2023/02/19 06:59:52;;;;;;;8.77;6.63;;;;;;;;;;5114659;28;20207;-86
2023/02/19 07:02:19;;;;;;;7.53;5.73;;;;;;;;;;5109902;28;20259;-87
2023/02/19 07:04:47;;;;;;;10.47;4.83;;;;;;;;;;5115209;28;20587;-85
2023/02/19 07:07:14;;;;;;;12.23;6.20;;;;;;;;;;5077983;28;20212;-83
2023/02/19 07:09:41;;;;;;;7.20;4.80;;;;;;;;;;5089288;28;20216;-85
2023/02/19 07:12:11;;;;;;;5.07;4.57;;;;;;;;;;5114776;28;20215;-94
2023/02/19 07:14:37;;;;;;;3.27;2.93;;;;;;;;;;5115276;28;20210;-80
2023/02/19 07:17:04;;;;;;;6.37;4.30;;;;;;;;;;5114268;28;20222;-83
2023/02/19 07:19:31;;;;;;;9.87;4.27;;;;;;;;;;5096822;28;20751;-82
2023/02/19 07:21:58;;;;;;;4.63;3.53;;;;;;;;;;5114846;28;20294;-84
2023/02/19 07:24:25;;;;;;;2.50;2.27;;;;;;;;;;5114401;28;20667;-83
2023/02/19 07:26:53;;;;;;;2.63;2.43;;;;;;;;;;5061388;28;20254;-89
2023/02/19 07:29:21;;;;;;;3.43;2.23;;;;;;;;;;5115582;28;20584;-89
2023/02/19 07:31:48;;;;;;;1.80;1.70;;;;;;;;;;5096681;28;20214;-89
2023/02/19 07:34:15;;;;;;;9.93;6.60;;;;;;;;;;5069223;28;20261;-83
2023/02/19 07:36:45;;;;;;;16.50;7.40;;;;;;;;;;5107606;28;20227;-88
2023/02/19 07:39:14;;;;;;;3.77;2.03;;;;;;;;;;5095354;28;20205;-88
2023/02/19 07:41:41;;;;;;;3.90;2.37;;;;;;;;;;5112639;28;20274;-88
2023/02/19 07:44:12;;;;;;;5.60;4.23;;;;;;;;;;5096269;28;20211;-88
2023/02/19 07:46:40;;;;;;;9.97;7.23;;;;;;;;;;5091560;28;20281;-87
2023/02/19 07:49:07;;;;;;;3.00;2.80;;;;;;;;;;5088561;28;20256;-88
2023/02/19 07:51:34;;;;;;;2.77;2.57;;;;;;;;;;5065883;28;20200;-87
2023/02/19 07:54:01;;;;;;;3.90;2.20;;;;;;;;;;5088643;28;20208;-87
2023/02/19 07:56:30;;;;;;;5.20;4.03;;;;;;;;;;5086240;28;20670;-88
2023/02/19 07:58:58;;;;;;;4.97;2.90;;;;;;;;;;5109592;28;20215;-87
2023/02/19 08:04:11;;;;;;;3.33;3.00;;;;;;;;;;5097389;28;20283;-87
2023/02/19 08:06:38;;;;;;;5.73;5.03;;;;;;;;;;5100700;28;20208;-88
2023/02/19 08:09:07;;;;;;;2.30;2.10;;;;;;;;;;5097530;28;20265;-89
2023/02/19 08:14:19;;;;;;;3.17;1.90;;;;;;;;;;5113551;28;20219;-88
2023/02/19 08:16:50;;;;;;;1.60;1.50;;;;;;;;;;5100231;28;20233;-88
2023/02/19 08:19:23;;;;;;;1.60;1.50;;;;;;;;;;5100150;28;20250;-89
2023/02/19 08:21:50;;;;;;;2.20;2.00;;;;;;;;;;5108951;28;20257;-87
2023/02/19 08:24:18;;;;;;;1.53;1.43;;;;;;;;;;5093817;28;20237;-89
2023/02/19 08:26:45;;;;;;;2.53;1.40;;;;;;;;;;5079845;28;20247;-88
2023/02/19 08:29:13;;;;;;;2.03;1.80;;;;;;;;;;5114244;28;20206;-93
2023/02/19 08:31:41;;;;;;;2.17;1.90;;;;;;;;;;5096065;28;20208;-88
2023/02/19 08:34:11;;;;;;;1.57;1.47;;;;;;;;;;5096049;28;20271;-90
2023/02/19 08:36:42;;;;;;;1.60;1.50;;;;;;;;;;5077187;28;20206;-89
2023/02/19 08:39:13;;;;;;;3.20;2.90;;;;;;;;;;5104415;28;20236;-89
2023/02/19 08:41:42;;;;;;;1.60;1.50;;;;;;;;;;5113908;28;20214;-88
2023/02/19 08:44:11;;;;;;;2.50;2.30;;;;;;;;;;5114693;28;20210;-91
2023/02/19 08:46:40;;;;;;;1.40;1.30;;;;;;;;;;5113000;28;20238;-87
2023/02/19 08:49:08;;;;;;;1.70;1.60;;;;;;;;;;5095644;28;20203;-88
2023/02/19 08:51:35;;;;;;;2.23;1.80;;;;;;;;;;5113352;28;20203;-89
2023/02/19 08:54:05;;;;;;;2.10;1.90;;;;;;;;;;5090165;28;20214;-88
2023/02/19 08:56:33;;;;;;;4.20;3.80;;;;;;;;;;5100438;28;20203;-88
2023/02/19 08:59:01;;;;;;;4.00;3.60;;;;;;;;;;5097814;28;20322;-87
2023/02/19 09:01:28;;;;;;;2.70;1.80;;;;;;;;;;5104362;28;20211;-88
2023/02/19 09:03:55;;;;;;;2.20;1.80;;;;;;;;;;5108688;28;20196;-88
2023/02/19 09:06:23;;;;;;;5.57;4.90;;;;;;;;;;5101200;28;20203;-89
2023/02/19 09:08:51;;;;;;;5.13;4.40;;;;;;;;;;5112660;28;20265;-87
2023/02/19 09:11:20;;;;;;;9.67;7.40;;;;;;;;;;5085464;28;20205;-85
2023/02/19 09:13:46;;;;;;;4.80;4.10;;;;;;;;;;5104526;28;20256;-80
2023/02/19 09:16:13;;;;;;;3.73;2.93;;;;;;;;;;5108693;28;20195;-80
2023/02/19 09:18:40;;;;;;;2.47;2.13;;;;;;;;;;5105415;28;20227;-81
2023/02/19 09:21:07;;;;;;;7.33;4.10;;;;;;;;;;5085259;28;20204;-82
2023/02/19 09:23:35;;;;;;;5.57;3.47;;;;;;;;;;5087537;28;20296;-88
2023/02/19 09:26:05;;;;;;;3.77;2.60;;;;;;;;;;5102139;28;20240;-84
2023/02/19 09:28:34;;;;;;;7.20;2.93;;;;;;;;;;5104389;28;20236;-88
2023/02/19 09:31:04;;;;;;;4.00;3.03;;;;;;;;;;5106841;28;20215;-88
2023/02/19 09:33:47;;;;;;;6.13;4.83;;;;;;;;;;5113869;28;20210;-88
2023/02/19 09:36:26;;;;;;;5.57;4.30;;;;;;;;;;5095605;28;20199;-91
2023/02/19 09:38:54;;;;;;;5.47;2.27;;;;;;;;;;5095364;28;20234;-86
2023/02/19 09:41:26;;;;;;;2.37;2.10;;;;;;;;;;5081006;28;20212;-82
2023/02/19 09:43:54;;;;;;;2.30;1.83;;;;;;;;;;5093809;28;20207;-82
2023/02/19 09:46:28;;;;;;;3.07;2.10;;;;;;;;;;5089305;28;20251;-82
2023/02/19 09:48:59;;;;;;;1.20;1.10;;;;;;;;;;5083060;28;20201;-84
2023/02/19 09:51:27;;;;;;;1.23;1.13;;;;;;;;;;5083835;28;20212;-85
2023/02/19 09:53:54;;;;;;;1.20;1.10;;;;;;;;;;5091362;28;20200;-85
2023/02/19 09:56:21;;;;;;;7.13;1.87;;;;;;;;;;5083402;28;20204;-83
2023/02/19 09:58:50;;;;;;;8.87;5.03;;;;;;;;;;5083757;28;20595;-84
2023/02/19 10:01:20;;;;;;;9.93;5.00;;;;;;;;;;5084431;28;20201;-85
2023/02/19 10:03:48;;;;;;;1.87;1.77;;;;;;;;;;5071273;28;20201;-86
2023/02/19 10:06:19;;;;;;;1.60;1.50;;;;;;;;;;5078513;28;20218;-84
2023/02/19 10:08:48;;;;;;;3.37;2.33;;;;;;;;;;5088433;28;20200;-84
2023/02/19 10:11:16;;;;;;;2.23;1.90;;;;;;;;;;5072173;28;20608;-84
2023/02/19 10:13:44;;;;;;;1.53;1.43;;;;;;;;;;5084529;28;20693;-83
2023/02/19 10:16:16;;;;;;;1.60;1.50;;;;;;;;;;5090190;28;20212;-84
2023/02/19 10:18:45;;;;;;;2.57;2.33;;;;;;;;;;5091161;28;20254;-84
2023/02/19 10:21:15;;;;;;;1.60;1.50;;;;;;;;;;5080670;28;20207;-83
2023/02/19 10:23:43;;;;;;;1.70;1.17;;;;;;;;;;5089359;28;20208;-85
2023/02/19 10:26:10;;;;;;;1.00;1.00;;;;;;;;;;5090001;28;20708;-84
2023/02/19 10:28:38;;;;;;;1.20;1.10;;;;;;;;;;5088469;28;20250;-85
2023/02/19 10:31:11;;;;;;;1.60;1.50;;;;;;;;;;5056801;28;20572;-84
2023/02/19 10:33:49;;;;;;;1.20;1.10;;;;;;;;;;5080838;28;20286;-84
2023/02/19 10:36:24;;;;;;;1.93;1.70;;;;;;;;;;5086252;28;20743;-84
2023/02/19 10:38:51;;;;;;;1.27;1.17;;;;;;;;;;5082950;28;20698;-85
2023/02/19 10:41:21;;;;;;;1.43;1.00;;;;;;;;;;5078327;28;20282;-85
2023/02/19 10:43:52;;;;;;;1.60;1.50;;;;;;;;;;5090677;28;20645;-83
2023/02/19 10:46:22;;;;;;;2.47;2.10;;;;;;;;;;5088968;28;20235;-85
2023/02/19 10:48:53;;;;;;;1.00;1.00;;;;;;;;;;5077708;28;20209;-85
2023/02/19 10:51:24;;;;;;;0.77;0.77;;;;;;;;;;5091033;28;20255;-84
2023/02/19 10:54:04;;;;;;;1.43;0.80;;;;;;;;;;5089397;28;20212;-84
2023/02/19 10:56:32;;;;;;;1.27;1.17;;;;;;;;;;5081996;28;20276;-84
2023/02/19 10:59:16;;;;;;;1.20;1.07;;;;;;;;;;5086647;28;20250;-84
2023/02/19 11:01:54;;;;;;;2.00;1.23;;;;;;;;;;5089008;28;20196;-84
2023/02/19 11:04:23;;;;;;;1.87;1.07;;;;;;;;;;5078411;28;20702;-83
2023/02/19 11:06:49;;;;;;;2.20;1.13;;;;;;;;;;5089226;28;20208;-84
2023/02/19 11:09:26;;;;;;;1.20;1.10;;;;;;;;;;5091077;28;20667;-81
2023/02/19 11:11:55;;;;;;;0.90;0.87;;;;;;;;;;5090230;28;20702;-83
2023/02/19 11:14:24;;;;;;;8.20;6.03;;;;;;;;;;5075963;28;20663;-85
2023/02/19 11:16:54;;;;;;;1.87;1.47;;;;;;;;;;5088673;28;20695;-85
2023/02/19 11:19:37;;;;;;;1.00;1.00;;;;;;;;;;5070015;28;20623;-86
2023/02/19 11:22:19;;;;;;;1.43;1.33;;;;;;;;;;5089177;28;20208;-85
2023/02/19 11:24:49;;;;;;;0.90;0.90;;;;;;;;;;5083430;28;20753;-85
2023/02/19 11:27:19;;;;;;;2.07;1.60;;;;;;;;;;5093060;28;20211;-86
2023/02/19 11:29:46;;;;;;;1.27;1.17;;;;;;;;;;5094694;28;20208;-85
2023/02/19 11:32:25;;;;;;;0.70;0.70;;;;;;;;;;5093372;28;20694;-85
2023/02/19 11:35:14;;;;;;;1.17;1.07;;;;;;;;;;5086102;28;20200;-87
2023/02/19 11:37:54;;;;;;;3.60;1.00;;;;;;;;;;5094554;28;20283;-85
2023/02/19 11:40:22;;;;;;;0.80;0.80;;;;;;;;;;5092025;28;20254;-85
2023/02/19 11:42:55;;;;;;;0.63;0.63;;;;;;;;;;5094389;28;20208;-85
2023/02/19 11:45:35;;;;;;;0.90;0.90;;;;;;;;;;5094572;28;20213;-87
2023/02/19 11:48:21;;;;;;;0.93;0.90;;;;;;;;;;5082361;28;20207;-85
2023/02/19 11:50:55;;;;;;;1.40;1.30;;;;;;;;;;5089243;28;20209;-85
2023/02/19 11:53:27;;;;;;;1.53;1.30;;;;;;;;;;5073246;28;20209;-89
2023/02/19 11:56:03;;;;;;;2.83;2.50;;;;;;;;;;5093442;28;20200;-85
2023/02/19 11:58:44;;;;;;;2.00;1.80;;;;;;;;;;5093518;28;20216;-86
2023/02/19 12:01:21;;;;;;;3.63;3.30;;;;;;;;;;5093991;28;20200;-85
2023/02/19 12:04:02;;;;;;;1.90;1.80;;;;;;;;;;5093606;28;20269;-85
2023/02/19 12:06:38;;;;;;;1.80;1.70;;;;;;;;;;5093426;28;20608;-85
2023/02/19 12:09:25;;;;;;;1.40;1.30;;;;;;;;;;5082469;28;20227;-85
2023/02/19 12:12:25;;;;;;;1.13;1.13;;;;;;;;;;5088029;28;20679;-87
2023/02/19 12:15:07;;;;;;;1.67;1.40;;;;;;;;;;5093565;28;20211;-86
2023/02/19 12:17:44;;;;;;;2.67;1.90;;;;;;;;;;5092120;28;20682;-85
2023/02/19 12:20:19;;;;;;;1.53;1.40;;;;;;;;;;5093261;28;20675;-86
2023/02/19 12:22:53;;;;;;;1.83;1.60;;;;;;;;;;5093711;28;20203;-85
2023/02/19 12:25:35;;;;;;;1.80;1.70;;;;;;;;;;5093120;28;20678;-85
2023/02/19 12:28:22;;;;;;;3.60;2.13;;;;;;;;;;5081414;28;20201;-84
2023/02/19 12:31:08;;;;;;;2.53;1.70;;;;;;;;;;5073848;28;20274;-85
2023/02/19 12:33:56;;;;;;;1.50;1.40;;;;;;;;;;5090060;28;20211;-85
2023/02/19 12:36:27;;;;;;;3.27;2.97;;;;;;;;;;5079057;28;20201;-89
2023/02/19 12:39:01;;;;;;;1.60;1.50;;;;;;;;;;5081416;28;20298;-85
2023/02/19 12:41:36;;;;;;;1.73;1.60;;;;;;;;;;5079735;28;20219;-85
2023/02/19 12:44:05;;;;;;;2.97;2.40;;;;;;;;;;5081816;28;20683;-85
2023/02/19 12:46:35;;;;;;;2.47;2.00;;;;;;;;;;5094690;28;20232;-85
2023/02/19 12:49:06;;;;;;;2.30;1.67;;;;;;;;;;5104936;28;20268;-85
2023/02/19 12:51:37;;;;;;;2.00;1.80;;;;;;;;;;5113028;28;20682;-85
2023/02/19 12:54:12;;;;;;;4.00;2.40;;;;;;;;;;5113279;28;20207;-85
2023/02/19 12:56:45;;;;;;;3.57;2.10;;;;;;;;;;5100842;28;20195;-85
2023/02/19 12:59:14;;;;;;;1.70;1.60;;;;;;;;;;5111219;28;20220;-86
2023/02/19 13:01:47;;;;;;;1.57;1.47;;;;;;;;;;5102077;28;20278;-88
2023/02/19 13:04:24;;;;;;;2.43;1.93;;;;;;;;;;5113162;28;20203;-85
2023/02/19 13:06:54;;;;;;;1.87;1.70;;;;;;;;;;5112717;28;20674;-84
2023/02/19 13:09:28;;;;;;;1.50;1.40;;;;;;;;;;5099269;28;20229;-85
2023/02/19 13:12:06;;;;;;;2.23;2.03;;;;;;;;;;5112948;28;20203;-89
2023/02/19 13:14:35;;;;;;;1.30;1.17;;;;;;;;;;5100728;28;20203;-85
2023/02/19 13:17:08;;;;;;;1.30;1.20;;;;;;;;;;5112434;28;20199;-86
2023/02/19 13:19:36;;;;;;;14.20;8.93;;;;;;;;;;5112692;28;20237;-84
2023/02/19 13:24:53;;;;;;;15.57;9.10;;;;;;;;;;5106182;28;20689;-86
2023/02/19 13:27:34;;;;;;;4.13;3.10;;;;;;;;;;5099187;28;20264;-84
2023/02/19 13:30:15;;;;;;;8.93;4.77;;;;;;;;;;5112634;28;20584;-85
2023/02/19 13:32:58;;;;;;;6.47;4.13;;;;;;;;;;5112085;28;20636;-85
2023/02/19 13:35:35;;;;;;;6.10;4.60;;;;;;;;;;5104656;28;20275;-84
2023/02/19 13:38:03;;;;;;;1.40;1.30;;;;;;;;;;5112717;28;20202;-84
2023/02/19 13:40:34;;;;;;;11.37;7.23;;;;;;;;;;5112447;28;20227;-84
2023/02/19 13:43:02;;;;;;;1.20;1.10;;;;;;;;;;5112097;28;20211;-81
2023/02/19 13:45:33;;;;;;;5.20;4.07;;;;;;;;;;5112351;28;20212;-85
2023/02/19 13:48:03;;;;;;;4.90;3.37;;;;;;;;;;5098648;28;20750;-86
2023/02/19 13:50:31;;;;;;;2.43;2.00;;;;;;;;;;5101238;28;20258;-85
2023/02/19 13:52:59;;;;;;;10.07;7.13;;;;;;;;;;5110442;28;20203;-86
2023/02/19 13:55:51;;;;;;;1.90;1.80;;;;;;;;;;5112139;28;20671;-85
2023/02/19 13:59:01;;;;;;;2.43;2.23;;;;;;;;;;5112134;28;20648;-86
2023/02/19 14:02:10;;;;;;;2.70;2.50;;;;;;;;;;5111839;28;20292;-86
2023/02/19 14:04:51;;;;;;;2.30;2.10;;;;;;;;;;5080924;28;20681;-85
2023/02/19 14:07:34;;;;;;;3.07;1.60;;;;;;;;;;5111593;28;20264;-85
2023/02/19 14:10:02;;;;;;;1.07;0.97;;;;;;;;;;5111650;28;20262;-85
2023/02/19 14:12:33;;;;;;;1.50;1.40;;;;;;;;;;5094115;28;20207;-85
2023/02/19 14:15:33;;;;;;;1.00;1.00;;;;;;;;;;5099716;28;20562;-86
2023/02/19 14:18:00;;;;;;;3.47;2.50;;;;;;;;;;5093581;28;20693;-86
2023/02/19 14:20:43;;;;;;;2.90;2.60;;;;;;;;;;5088567;28;20223;-86
2023/02/19 14:23:16;;;;;;;3.80;3.00;;;;;;;;;;5104908;28;20374;-86
2023/02/19 14:25:50;;;;;;;2.17;1.70;;;;;;;;;;5102748;28;20207;-86
2023/02/19 14:28:36;;;;;;;1.70;1.60;;;;;;;;;;5105278;28;20211;-86
2023/02/19 14:31:10;;;;;;;2.67;1.50;;;;;;;;;;5092692;28;20204;-85
2023/02/19 14:33:39;;;;;;;1.83;1.70;;;;;;;;;;5101686;28;20235;-86
2023/02/19 14:36:26;;;;;;;2.40;1.57;;;;;;;;;;5105382;28;20228;-84
2023/02/19 14:38:55;;;;;;;1.83;1.50;;;;;;;;;;5104484;28;20223;-85
2023/02/19 14:41:23;;;;;;;32.00;17.33;;;;;;;;;;5104380;28;20200;-85
2023/02/19 14:43:52;;;;;;;18.53;10.63;;;;;;;;;;5104521;28;20199;-86
2023/02/19 14:46:26;;;;;;;12.13;7.73;;;;;;;;;;5111580;28;20220;-85
2023/02/19 14:48:53;;;;;;;30.70;20.53;;;;;;;;;;5108788;28;20206;-85
2023/02/19 14:51:27;;;;;;;30.67;18.77;;;;;;;;;;5100465;28;20206;-85
2023/02/19 14:53:54;;;;;;;9.70;8.00;;;;;;;;;;5111828;28;20635;-85
2023/02/19 14:56:25;;;;;;;5.17;4.67;;;;;;;;;;5113092;28;20654;-86
2023/02/19 14:59:23;;;;;;;13.40;8.53;;;;;;;;;;5115733;28;20199;-85
2023/02/19 15:02:01;;;;;;;9.93;5.77;;;;;;;;;;5113770;28;20203;-85
2023/02/19 15:04:30;;;;;;;6.67;4.17;;;;;;;;;;5095185;28;20561;-87
2023/02/19 15:06:57;;;;;;;6.53;4.50;;;;;;;;;;5109077;28;20650;-90
2023/02/19 15:09:30;;;;;;;3.40;3.10;;;;;;;;;;5106038;28;20211;-85
2023/02/19 15:11:57;;;;;;;2.60;2.40;;;;;;;;;;5110150;28;20294;-89
2023/02/19 15:14:29;;;;;;;3.63;2.70;;;;;;;;;;5115386;28;20207;-85
2023/02/19 15:16:58;;;;;;;2.20;1.70;;;;;;;;;;5101495;28;20212;-86
2023/02/19 15:19:27;;;;;;;2.90;2.70;;;;;;;;;;5115256;28;20228;-85
2023/02/19 15:21:54;;;;;;;1.83;1.60;;;;;;;;;;5115244;28;20214;-85
2023/02/19 15:24:21;;;;;;;1.73;1.63;;;;;;;;;;5114816;28;20214;-86
2023/02/19 15:26:50;;;;;;;1.77;1.67;;;;;;;;;;5114833;28;20211;-85
2023/02/19 15:29:19;;;;;;;4.90;2.13;;;;;;;;;;5111995;28;20727;-86
2023/02/19 15:31:50;;;;;;;2.10;1.90;;;;;;;;;;5099250;28;20245;-86